^^
Your Local Weather - Clay, NY Station Historical Data
Daily Summary for August 1, 2017 Units:  English    Metric   Both
« Previous Day
Next Day »
Daily Weekly Monthly Yearly Custom
  High: Low: Average:
Temperature: 84.8 °F 60.8 °F 72.6 °F
Dew Point: 69.2 °F 59.1 °F 64.4 °F
Humidity: 95% 48% 78%
Wind Speed: 3.0mph 0.0mph 0.4mph
Wind Gust: 5.0mph - -
Wind- - SW
Pressure: 30.04 in 29.94 in -
Precipitation: 0.00 in    
Historical Graphs
 
 
Tabular Data for August 1, 2017
Time Temperature Dew Point Pressure Wind Wind Speed Wind Gust Humidity Rainfall Rate (Hourly) solar
00:04 65.2 °F 62.8 °F 30.01 in Calm     92% 0.00 in 0 W/m2
00:10 65.1 °F 62.7 °F 30.01 in Calm     92% 0.00 in 0 W/m2
00:16 64.9 °F 62.5 °F 30.01 in Calm     92% 0.00 in 0 W/m2
00:22 64.8 °F 62.4 °F 30.01 in Calm     92% 0.00 in 0 W/m2
00:28 64.7 °F 62.3 °F 30.02 in Calm     92% 0.00 in 0 W/m2
00:34 64.5 °F 62.1 °F 30.01 in Calm   1.0 mph 92% 0.00 in 0 W/m2
00:40 64.2 °F 61.8 °F 30.01 in Calm     92% 0.00 in 0 W/m2
00:48 64.1 °F 61.7 °F 30.01 in Calm     92% 0.00 in 0 W/m2
00:54 64.1 °F 61.7 °F 30.01 in Calm     92% 0.00 in 0 W/m2
01:00 64.3 °F 62.2 °F 30.01 in Calm     93% 0.00 in 0 W/m2
01:06 64.3 °F 62.2 °F 30.01 in Calm     93% 0.00 in 0 W/m2
01:12 64.1 °F 62.0 °F 30.01 in Calm     93% 0.00 in 0 W/m2
01:18 64.0 °F 61.9 °F 30.01 in Calm     93% 0.00 in 0 W/m2
01:24 63.8 °F 61.7 °F 30.01 in Calm     93% 0.00 in 0 W/m2
01:30 63.8 °F 61.7 °F 30.01 in Calm     93% 0.00 in 0 W/m2
01:36 63.7 °F 61.6 °F 30.00 in Calm     93% 0.00 in 0 W/m2
01:42 63.5 °F 61.4 °F 30.00 in Calm     93% 0.00 in 0 W/m2
01:48 63.4 °F 61.3 °F 30.00 in Calm     93% 0.00 in 0 W/m2
01:54 63.3 °F 61.2 °F 30.00 in Calm     93% 0.00 in 0 W/m2
02:00 63.4 °F 61.3 °F 30.00 in Calm     93% 0.00 in 0 W/m2
02:06 63.5 °F 61.4 °F 30.00 in Calm     93% 0.00 in 0 W/m2
02:12 63.5 °F 61.4 °F 30.00 in Calm     93% 0.00 in 0 W/m2
02:18 63.3 °F 61.2 °F 30.00 in Calm     93% 0.00 in 0 W/m2
02:24 63.3 °F 61.2 °F 30.00 in Calm     93% 0.00 in 0 W/m2
02:30 63.2 °F 61.1 °F 30.00 in Calm     93% 0.00 in 0 W/m2
02:36 63.1 °F 61.0 °F 30.00 in Calm     93% 0.00 in 0 W/m2
02:42 63.1 °F 61.0 °F 30.00 in Calm     93% 0.00 in 0 W/m2
02:48 63.0 °F 60.9 °F 30.00 in Calm     93% 0.00 in 0 W/m2
02:54 62.8 °F 60.7 °F 30.00 in Calm     93% 0.00 in 0 W/m2
03:00 62.7 °F 60.6 °F 30.00 in Calm     93% 0.00 in 0 W/m2
03:06 62.5 °F 60.4 °F 30.00 in Calm     93% 0.00 in 0 W/m2
03:12 62.5 °F 60.4 °F 30.00 in Calm     93% 0.00 in 0 W/m2
03:18 62.6 °F 60.5 °F 30.00 in Calm     93% 0.00 in 0 W/m2
03:24 62.5 °F 60.4 °F 30.00 in Calm     93% 0.00 in 0 W/m2
03:30 62.6 °F 60.5 °F 30.00 in Calm     93% 0.00 in 0 W/m2
03:36 62.6 °F 60.8 °F 30.00 in Calm     94% 0.00 in 0 W/m2
03:42 62.5 °F 60.7 °F 30.00 in Calm     94% 0.00 in 0 W/m2
03:48 62.3 °F 60.6 °F 30.00 in Calm     94% 0.00 in 0 W/m2
03:54 62.3 °F 60.6 °F 30.00 in Calm     94% 0.00 in 0 W/m2
04:00 62.3 °F 60.6 °F 30.00 in Calm     94% 0.00 in 0 W/m2
04:06 62.2 °F 60.5 °F 30.00 in Calm     94% 0.00 in 0 W/m2
04:12 62.1 °F 60.4 °F 30.00 in Calm     94% 0.00 in 0 W/m2
04:18 61.9 °F 60.2 °F 30.00 in Calm     94% 0.00 in 0 W/m2
04:24 61.8 °F 60.1 °F 30.00 in Calm     94% 0.00 in 0 W/m2
04:30 61.8 °F 60.1 °F 30.01 in Calm     94% 0.00 in 0 W/m2
04:36 61.7 °F 60.0 °F 30.01 in Calm     94% 0.00 in 0 W/m2
04:42 61.6 °F 59.9 °F 30.01 in Calm     94% 0.00 in 0 W/m2
04:48 61.6 °F 59.9 °F 30.01 in Calm     94% 0.00 in 0 W/m2
04:54 61.6 °F 59.9 °F 30.01 in Calm     94% 0.00 in 0 W/m2
05:00 61.5 °F 59.8 °F 30.01 in Calm     94% 0.00 in 0 W/m2
05:06 61.5 °F 59.8 °F 30.01 in Calm     94% 0.00 in 0 W/m2
05:12 61.4 °F 59.7 °F 30.00 in Calm     94% 0.00 in 0 W/m2
05:18 61.3 °F 59.6 °F 30.01 in Calm     94% 0.00 in 0 W/m2
05:24 61.1 °F 59.4 °F 30.01 in Calm     94% 0.00 in 0 W/m2
05:30 61.1 °F 59.4 °F 30.01 in Calm     94% 0.00 in 0 W/m2
05:36 61.0 °F 59.3 °F 30.01 in Calm     94% 0.00 in 0 W/m2
05:42 61.1 °F 59.4 °F 30.01 in Calm     94% 0.00 in 0 W/m2
05:48 61.0 °F 59.3 °F 30.01 in Calm     94% 0.00 in 0 W/m2
05:54 60.8 °F 59.1 °F 30.01 in Calm     94% 0.00 in 0 W/m2
06:00 60.8 °F 59.1 °F 30.01 in Calm     94% 0.00 in 5 W/m2
06:06 60.8 °F 59.1 °F 30.02 in Calm     94% 0.00 in 7 W/m2
06:12 60.8 °F 59.1 °F 30.02 in Calm     94% 0.00 in 11 W/m2
06:18 60.8 °F 59.1 °F 30.02 in Calm     94% 0.00 in 14 W/m2
06:24 60.8 °F 59.1 °F 30.02 in Calm     94% 0.00 in 18 W/m2
06:30 60.9 °F 59.2 °F 30.02 in Calm     94% 0.00 in 21 W/m2
06:36 61.1 °F 59.4 °F 30.02 in Calm     94% 0.00 in 28 W/m2
06:42 61.4 °F 59.7 °F 30.02 in Calm     94% 0.00 in 42 W/m2
06:48 61.7 °F 60.0 °F 30.02 in Calm     94% 0.00 in 67 W/m2
06:54 61.9 °F 60.5 °F 30.02 in Calm     95% 0.00 in 88 W/m2
07:00 62.5 °F 61.0 °F 30.02 in Calm     95% 0.00 in 102 W/m2
07:06 63.0 °F 61.2 °F 30.03 in Calm     94% 0.00 in 116 W/m2
07:12 63.4 °F 61.9 °F 30.03 in Calm     95% 0.00 in 132 W/m2
07:18 64.0 °F 62.5 °F 30.03 in Calm     95% 0.00 in 146 W/m2
07:24 64.5 °F 63.0 °F 30.03 in Calm     95% 0.00 in 160 W/m2
07:30 64.9 °F 63.4 °F 30.03 in Calm     95% 0.00 in 176 W/m2
07:36 65.4 °F 63.9 °F 30.03 in Calm     95% 0.00 in 192 W/m2
07:42 65.9 °F 64.4 °F 30.03 in Calm     95% 0.00 in 206 W/m2
07:48 66.5 °F 64.7 °F 30.03 in Calm     94% 0.00 in 223 W/m2
07:54 67.4 °F 65.6 °F 30.03 in Calm     94% 0.00 in 239 W/m2
08:00 67.9 °F 66.1 °F 30.03 in Calm     94% 0.00 in 255 W/m2
08:06 68.3 °F 65.9 °F 30.03 in Calm     92% 0.00 in 269 W/m2
08:12 68.9 °F 66.2 °F 30.03 in Calm     91% 0.00 in 290 W/m2
08:18 69.4 °F 65.7 °F 30.03 in Calm     88% 0.00 in 311 W/m2
08:24 69.6 °F 65.6 °F 30.04 in Calm     87% 0.00 in 334 W/m2
08:30 69.9 °F 65.5 °F 30.04 in Calm     86% 0.00 in 350 W/m2
08:36 70.0 °F 65.6 °F 30.04 in Calm   2.0 mph 86% 0.00 in 369 W/m2
08:42 70.1 °F 65.4 °F 30.04 in Calm   1.0 mph 85% 0.00 in 387 W/m2
08:48 70.1 °F 65.4 °F 30.04 in Calm   2.0 mph 85% 0.00 in 404 W/m2
08:54 70.4 °F 66.0 °F 30.03 in Calm   2.0 mph 86% 0.00 in 420 W/m2
09:00 70.9 °F 66.5 °F 30.04 in Calm   1.0 mph 86% 0.00 in 438 W/m2
09:06 71.1 °F 66.0 °F 30.04 in Calm   1.0 mph 84% 0.00 in 459 W/m2
09:12 71.6 °F 66.5 °F 30.03 in Calm     84% 0.00 in 480 W/m2
09:18 72.0 °F 66.9 °F 30.03 in Calm     84% 0.00 in 503 W/m2
09:24 72.5 °F 67.0 °F 30.03 in Calm   1.0 mph 83% 0.00 in 519 W/m2
09:30 73.3 °F 67.8 °F 30.03 in Calm     83% 0.00 in 529 W/m2
09:36 73.8 °F 67.2 °F 30.03 in Calm     80% 0.00 in 555 W/m2
09:42 74.3 °F 67.4 °F 30.03 in Calm     79% 0.00 in 603 W/m2
09:48 74.8 °F 67.8 °F 30.03 in Calm     79% 0.00 in 606 W/m2
09:54 75.1 °F 67.4 °F 30.03 in Calm     77% 0.00 in 622 W/m2
10:00 74.9 °F 66.4 °F 30.03 in Calm     75% 0.00 in 638 W/m2
10:06 75.1 °F 66.6 °F 30.03 in Calm   1.0 mph 75% 0.00 in 649 W/m2
10:14 75.1 °F 67.4 °F 30.03 in SSW 1.0 mph 1.0 mph 77% 0.00 in 670 W/m2
10:20 75.5 °F 67.4 °F 30.03 in Calm     76% 0.00 in 679 W/m2
10:26 75.8 °F 66.9 °F 30.03 in NW 1.0 mph 1.0 mph 74% 0.00 in 680 W/m2
10:34 77.5 °F 68.6 °F 30.03 in Calm   1.0 mph 74% 0.00 in 731 W/m2
10:40 77.3 °F 68.4 °F 30.03 in SW 1.0 mph 1.0 mph 74% 0.00 in 738 W/m2
10:46 77.0 °F 67.3 °F 30.03 in WNW 1.0 mph 1.0 mph 72% 0.00 in 717 W/m2
10:52 77.0 °F 68.5 °F 30.03 in SW 1.0 mph 1.0 mph 75% 0.00 in 759 W/m2
10:58 77.4 °F 68.9 °F 30.03 in West 1.0 mph 3.0 mph 75% 0.00 in 772 W/m2
11:06 77.1 °F 67.4 °F 30.03 in Calm   2.0 mph 72% 0.00 in 788 W/m2
11:14 79.0 °F 68.0 °F 30.03 in Calm     69% 0.00 in 773 W/m2
11:20 77.9 °F 67.7 °F 30.03 in SSW 1.0 mph 1.0 mph 71% 0.00 in 837 W/m2
11:26 78.9 °F 68.3 °F 30.02 in SW 1.0 mph 2.0 mph 70% 0.00 in 837 W/m2
11:32 79.2 °F 67.7 °F 30.03 in NNW 1.0 mph 1.0 mph 68% 0.00 in 858 W/m2
11:38 79.9 °F 69.2 °F 30.03 in NNW 1.0 mph 2.0 mph 70% 0.00 in 847 W/m2
11:44 79.4 °F 66.6 °F 30.02 in WSW 1.0 mph 3.0 mph 65% 0.00 in 860 W/m2
11:50 79.6 °F 66.8 °F 30.02 in WSW 1.0 mph 1.0 mph 65% 0.00 in 888 W/m2
11:56 78.5 °F 66.6 °F 30.02 in WSW 1.0 mph 2.0 mph 67% 0.00 in 889 W/m2
12:02 79.7 °F 66.0 °F 30.02 in NW 1.0 mph 2.0 mph 63% 0.00 in 904 W/m2
12:08 80.4 °F 67.1 °F 30.02 in NW 1.0 mph 2.0 mph 64% 0.00 in 921 W/m2
12:14 80.6 °F 68.2 °F 30.02 in Calm   1.0 mph 66% 0.00 in 914 W/m2
12:20 80.7 °F 66.0 °F 30.02 in Calm     61% 0.00 in 970 W/m2
12:26 81.6 °F 66.8 °F 30.02 in WSW 1.0 mph 2.0 mph 61% 0.00 in 965 W/m2
12:32 81.6 °F 67.3 °F 30.02 in SSE 1.0 mph 2.0 mph 62% 0.00 in 976 W/m2
12:38 81.1 °F 66.4 °F 30.02 in SSW 2.0 mph 3.0 mph 61% 0.00 in 983 W/m2
12:44 81.1 °F 65.9 °F 30.01 in SSW 2.0 mph 2.0 mph 60% 0.00 in 1004 W/m2
12:50 81.3 °F 65.6 °F 30.01 in SW 2.0 mph 3.0 mph 59% 0.00 in 997 W/m2
12:56 81.7 °F 66.0 °F 30.01 in SSE 1.0 mph 3.0 mph 59% 0.00 in 990 W/m2
13:02 81.8 °F 66.1 °F 30.01 in NNE 1.0 mph 4.0 mph 59% 0.00 in 1000 W/m2
13:08 81.6 °F 67.3 °F 30.01 in NNW 2.0 mph 4.0 mph 62% 0.00 in 990 W/m2
13:14 81.3 °F 65.1 °F 30.00 in North 3.0 mph 3.0 mph 58% 0.00 in 213 W/m2
13:20 80.3 °F 64.7 °F 30.00 in North 2.0 mph 2.0 mph 59% 0.00 in 171 W/m2
13:26 79.8 °F 63.7 °F 30.00 in Calm   2.0 mph 58% 0.00 in 165 W/m2
13:32 80.2 °F 61.0 °F 30.00 in Calm     52% 0.00 in 176 W/m2
13:38 80.2 °F 65.5 °F 30.00 in Calm     61% 0.00 in 192 W/m2
13:44 80.5 °F 64.9 °F 30.00 in ESE 1.0 mph 2.0 mph 59% 0.00 in 979 W/m2
13:50 81.7 °F 64.5 °F 30.00 in SSE 1.0 mph 1.0 mph 56% 0.00 in 916 W/m2
13:56 81.8 °F 67.0 °F 30.00 in SSE 1.0 mph 1.0 mph 61% 0.00 in 923 W/m2
14:02 82.1 °F 64.8 °F 30.00 in SSE 1.0 mph 1.0 mph 56% 0.00 in 881 W/m2
14:08 82.2 °F 65.4 °F 29.99 in NNE 1.0 mph 3.0 mph 57% 0.00 in 882 W/m2
14:16 82.9 °F 64.0 °F 29.99 in NNW 2.0 mph 3.0 mph 53% 0.00 in 893 W/m2
14:22 83.0 °F 66.2 °F 29.99 in North 1.0 mph 2.0 mph 57% 0.00 in 891 W/m2
14:28 82.5 °F 64.2 °F 29.99 in NE 1.0 mph 2.0 mph 54% 0.00 in 889 W/m2
14:34 83.8 °F 68.9 °F 29.99 in NNW 1.0 mph 1.0 mph 61% 0.00 in 898 W/m2
14:40 84.5 °F 66.0 °F 29.99 in WSW 1.0 mph 1.0 mph 54% 0.00 in 875 W/m2
14:46 84.8 °F 66.3 °F 29.99 in Calm   1.0 mph 54% 0.00 in 870 W/m2
14:52 84.1 °F 64.0 °F 29.98 in WSW 1.0 mph 1.0 mph 51% 0.00 in 863 W/m2
14:58 83.3 °F 61.6 °F 29.98 in ESE 1.0 mph 2.0 mph 48% 0.00 in 865 W/m2
15:06 83.3 °F 64.4 °F 29.97 in South 1.0 mph 1.0 mph 53% 0.00 in 160 W/m2
15:12 83.3 °F 66.5 °F 29.97 in Calm   2.0 mph 57% 0.00 in 566 W/m2
15:18 84.1 °F 64.6 °F 29.97 in WNW 1.0 mph 3.0 mph 52% 0.00 in 875 W/m2
15:24 84.8 °F 65.2 °F 29.97 in NNW 2.0 mph 4.0 mph 52% 0.00 in 867 W/m2
15:30 84.3 °F 64.8 °F 29.97 in North 2.0 mph 4.0 mph 52% 0.00 in 264 W/m2
15:36 83.2 °F 63.2 °F 29.97 in North 2.0 mph 4.0 mph 51% 0.00 in 237 W/m2
15:42 82.7 °F 65.4 °F 29.97 in NW 2.0 mph 5.0 mph 56% 0.00 in 332 W/m2
15:48 82.8 °F 67.0 °F 29.97 in NNE 3.0 mph 5.0 mph 59% 0.00 in 752 W/m2
16:02 83.7 °F 65.3 °F 29.96 in North 3.0 mph 3.0 mph 54% 0.00 in 691 W/m2
16:08 83.9 °F 64.9 °F 29.96 in North 1.0 mph 3.0 mph 53% 0.00 in 677 W/m2
16:12 83.9 °F 67.0 °F 29.96 in NNE 2.0 mph 2.0 mph 57% 0.00 in 664 W/m2
16:18 83.9 °F 65.5 °F 29.96 in North 2.0 mph 3.0 mph 54% 0.00 in 647 W/m2
16:24 83.7 °F 64.2 °F 29.96 in North 2.0 mph 3.0 mph 52% 0.00 in 636 W/m2
16:30 83.8 °F 65.9 °F 29.95 in North 1.0 mph 1.0 mph 55% 0.00 in 628 W/m2
16:36 83.9 °F 64.9 °F 29.95 in North 1.0 mph 4.0 mph 53% 0.00 in 624 W/m2
16:40 83.7 °F 66.3 °F 29.95 in North 1.0 mph 1.0 mph 56% 0.00 in 606 W/m2
16:46 83.8 °F 64.8 °F 29.95 in Calm   3.0 mph 53% 0.00 in 526 W/m2
16:52 83.8 °F 65.9 °F 29.95 in WNW 1.0 mph 2.0 mph 55% 0.00 in 566 W/m2
16:58 83.7 °F 65.3 °F 29.95 in NNW 1.0 mph 2.0 mph 54% 0.00 in 371 W/m2
17:04 83.1 °F 65.3 °F 29.95 in NNW 1.0 mph 3.0 mph 55% 0.00 in 91 W/m2
17:10 82.6 °F 65.8 °F 29.95 in North 2.0 mph 2.0 mph 57% 0.00 in 109 W/m2
17:16 82.6 °F 66.3 °F 29.95 in North 2.0 mph 4.0 mph 58% 0.00 in 90 W/m2
17:22 82.7 °F 65.9 °F 29.95 in North 2.0 mph 4.0 mph 57% 0.00 in 84 W/m2
17:24 82.7 °F 65.9 °F 29.95 in North 2.0 mph 4.0 mph 57% 0.00 in 77 W/m2
17:30 82.7 °F 65.4 °F 29.95 in North 1.0 mph 1.0 mph 56% 0.00 in 83 W/m2
17:36 82.7 °F 65.4 °F 29.96 in North 1.0 mph 3.0 mph 56% 0.00 in 77 W/m2
17:42 82.5 °F 65.2 °F 29.96 in NNW 2.0 mph 3.0 mph 56% 0.00 in 65 W/m2
17:48 82.2 °F 66.0 °F 29.95 in NNW 1.0 mph 3.0 mph 58% 0.00 in 69 W/m2
17:54 82.2 °F 66.4 °F 29.95 in North 1.0 mph 2.0 mph 59% 0.00 in 65 W/m2
18:00 82.1 °F 65.9 °F 29.95 in NNE 2.0 mph 2.0 mph 58% 0.00 in 63 W/m2
18:06 81.9 °F 65.7 °F 29.95 in North 3.0 mph 3.0 mph 58% 0.00 in 62 W/m2
18:12 81.9 °F 66.2 °F 29.95 in North 2.0 mph 2.0 mph 59% 0.00 in 58 W/m2
18:18 81.8 °F 66.1 °F 29.95 in NNW 1.0 mph 2.0 mph 59% 0.00 in 56 W/m2
18:24 81.8 °F 66.6 °F 29.95 in Calm   1.0 mph 60% 0.00 in 54 W/m2
18:30 81.7 °F 66.5 °F 29.95 in Calm   1.0 mph 60% 0.00 in 54 W/m2
18:36 81.6 °F 65.9 °F 29.95 in NNW 1.0 mph 3.0 mph 59% 0.00 in 53 W/m2
18:42 81.5 °F 66.3 °F 29.95 in NNW 1.0 mph 1.0 mph 60% 0.00 in 51 W/m2
18:48 81.4 °F 66.7 °F 29.95 in NNW 1.0 mph 3.0 mph 61% 0.00 in 51 W/m2
18:54 81.3 °F 66.6 °F 29.95 in NNW 1.0 mph 2.0 mph 61% 0.00 in 51 W/m2
19:00 81.0 °F 67.2 °F 29.95 in NNW 1.0 mph 2.0 mph 63% 0.00 in 47 W/m2
19:06 80.8 °F 66.6 °F 29.95 in Calm   2.0 mph 62% 0.00 in 46 W/m2
19:12 80.7 °F 67.4 °F 29.95 in Calm     64% 0.00 in 46 W/m2
19:18 80.5 °F 67.6 °F 29.95 in Calm     65% 0.00 in 44 W/m2
19:24 80.3 °F 67.5 °F 29.94 in NNW 1.0 mph 4.0 mph 65% 0.00 in 44 W/m2
19:30 79.9 °F 67.5 °F 29.95 in NNW 1.0 mph 1.0 mph 66% 0.00 in 42 W/m2
19:36 79.5 °F 67.6 °F 29.95 in Calm   1.0 mph 67% 0.00 in 42 W/m2
19:42 79.2 °F 67.7 °F 29.95 in Calm     68% 0.00 in 39 W/m2
19:48 78.9 °F 67.9 °F 29.95 in NNW 1.0 mph 2.0 mph 69% 0.00 in 35 W/m2
19:54 78.7 °F 67.7 °F 29.95 in NNW 1.0 mph 1.0 mph 69% 0.00 in 26 W/m2
20:00 78.4 °F 67.8 °F 29.95 in Calm     70% 0.00 in 19 W/m2
20:06 78.1 °F 68.3 °F 29.95 in Calm     72% 0.00 in 16 W/m2
20:12 77.6 °F 67.9 °F 29.95 in Calm     72% 0.00 in 11 W/m2
20:18 77.0 °F 68.1 °F 29.96 in Calm     74% 0.00 in 5 W/m2
20:24 76.2 °F 68.1 °F 29.97 in Calm     76% 0.00 in 0 W/m2
20:30 75.8 °F 68.1 °F 29.97 in Calm     77% 0.00 in 0 W/m2
20:36 75.3 °F 67.6 °F 29.97 in Calm     77% 0.00 in 0 W/m2
20:42 74.6 °F 67.3 °F 29.97 in Calm     78% 0.00 in 0 W/m2
20:48 74.1 °F 67.5 °F 29.97 in Calm     80% 0.00 in 0 W/m2
20:54 73.6 °F 67.0 °F 29.97 in Calm     80% 0.00 in 0 W/m2
21:00 73.3 °F 67.1 °F 29.97 in Calm     81% 0.00 in 0 W/m2
21:06 72.9 °F 66.7 °F 29.97 in Calm     81% 0.00 in 0 W/m2
21:12 72.6 °F 66.8 °F 29.97 in Calm     82% 0.00 in 0 W/m2
21:18 72.2 °F 66.7 °F 29.97 in Calm     83% 0.00 in 0 W/m2
21:24 71.9 °F 66.5 °F 29.98 in Calm     83% 0.00 in 0 W/m2
21:30 71.7 °F 66.6 °F 29.98 in Calm     84% 0.00 in 0 W/m2
21:36 71.4 °F 66.3 °F 29.98 in Calm     84% 0.00 in 0 W/m2
21:42 71.1 °F 66.4 °F 29.99 in Calm     85% 0.00 in 0 W/m2
21:48 70.8 °F 65.7 °F 29.99 in Calm     84% 0.00 in 0 W/m2
21:54 70.6 °F 65.5 °F 29.99 in Calm     84% 0.00 in 0 W/m2
22:00 70.3 °F 65.6 °F 29.99 in Calm     85% 0.00 in 0 W/m2
22:06 70.1 °F 65.4 °F 29.99 in Calm     85% 0.00 in 0 W/m2
22:12 69.7 °F 65.3 °F 29.99 in Calm     86% 0.00 in 0 W/m2
22:18 69.5 °F 65.1 °F 29.99 in Calm     86% 0.00 in 0 W/m2
22:24 69.4 °F 65.0 °F 29.99 in Calm     86% 0.00 in 0 W/m2
22:30 69.2 °F 65.2 °F 29.99 in Calm     87% 0.00 in 0 W/m2
22:36 69.0 °F 65.0 °F 29.99 in Calm     87% 0.00 in 0 W/m2
22:42 68.8 °F 65.1 °F 29.99 in Calm     88% 0.00 in 0 W/m2
22:48 68.7 °F 65.0 °F 29.99 in Calm     88% 0.00 in 0 W/m2
22:54 68.5 °F 64.8 °F 29.99 in Calm     88% 0.00 in 0 W/m2
23:00 68.5 °F 65.1 °F 29.99 in Calm     89% 0.00 in 0 W/m2
23:06 68.3 °F 64.9 °F 29.98 in Calm     89% 0.00 in 0 W/m2
23:12 68.1 °F 65.1 °F 29.98 in Calm     90% 0.00 in 0 W/m2
23:18 67.9 °F 64.9 °F 29.98 in Calm     90% 0.00 in 0 W/m2
23:24 67.8 °F 64.8 °F 29.98 in Calm     90% 0.00 in 0 W/m2
23:30 67.7 °F 64.7 °F 29.98 in Calm     90% 0.00 in 0 W/m2
23:36 67.5 °F 64.5 °F 29.99 in Calm     90% 0.00 in 0 W/m2
23:42 67.2 °F 64.5 °F 29.99 in Calm     91% 0.00 in 0 W/m2
23:48 67.2 °F 64.5 °F 29.99 in Calm     91% 0.00 in 0 W/m2
23:54 67.0 °F 64.3 °F 29.99 in Calm     91% 0.00 in 0 W/m2
Country Meadow, Clay, NY, USA
Compliments of Weather Underground - 2 mb